Flight Track Log - Related Links

Times and Time Zones

All times are in EDT time to prevent confusion due to time zone crossing. See the ERR709 flight status page for this flight to view local times or setup timezone preferences in your user account.

Time Position Orientation Groundspeed Altitude Reporting Facility
EDT Latitude Longitude Course Direction KTS MPH feet Rate Location/Type
Tue 02:09:03 AM 64.7667 -148.0000 217° Southwest 140 161 4,700  Level Anchorage Center
Tue 02:10:04 AM 64.7500 -148.0833 245° Southwest 160 184 6,200 1,537 Climbing Anchorage Center
Tue 02:11:04 AM 64.7167 -148.1500 221° Southwest 170 196 7,800 1,550 Climbing Anchorage Center
Tue 02:12:04 AM 64.6667 -148.2000 203° Southwest 170 196 9,300 1,438 Climbing Anchorage Center
Tue 02:13:00 AM 64.5697 -148.4000 180° South  Level FlightAware Approximate
Tue 02:13:05 AM 64.6167 -148.2333 196° South 180 207 10,700  Level Anchorage Center
Tue 02:14:00 AM 64.5276 -148.4933 217° Southwest  Level FlightAware Approximate
Tue 02:14:05 AM 64.5667 -148.2500 188° South 180 207 12,100  Level Anchorage Center
Tue 02:15:05 AM 64.5333 -148.2833 203° Southwest 180 207 13,500 1,289 Climbing Anchorage Center
Tue 02:16:06 AM 64.4833 -148.3167 196° South 190 219 14,700 1,140 Climbing Anchorage Center
Tue 02:17:06 AM 64.4167 -148.3333 186° South 200 230 15,800 1,050 Climbing Anchorage Center
Tue 02:18:06 AM 64.3667 -148.3667 196° South 200 230 16,800 992 Climbing Anchorage Center
Tue 02:19:07 AM 64.3167 -148.4000 196° South 200 230 17,800 843 Climbing Anchorage Center
Tue 02:20:07 AM 64.2667 -148.4333 196° South 200 230 18,500 595 Climbing Anchorage Center
Tue 02:21:08 AM 64.2167 -148.4667 196° South 200 230 19,000 248 Climbing Anchorage Center
Tue 02:22:08 AM 64.1500 -148.5000 192° South 220 253 19,000  Level Anchorage Center
Tue 02:23:08 AM 64.0833 -148.5333 192° South 240 276 19,000  Level Anchorage Center
Tue 02:24:09 AM 64.0167 -148.5667 192° South 240 276 19,000  Level Anchorage Center
Tue 02:25:09 AM 63.9667 -148.6000 196° South 220 253 19,000  Level Anchorage Center
Tue 02:26:09 AM 63.9000 -148.6333 192° South 230 265 19,000  Level Anchorage Center
Tue 02:27:10 AM 63.8333 -148.6667 192° South 230 265 19,000  Level Anchorage Center
Tue 02:28:10 AM 63.7667 -148.7000 192° South 240 276 19,000  Level Anchorage Center
Tue 02:29:10 AM 63.7000 -148.7333 192° South 220 253 19,000  Level Anchorage Center
Tue 02:30:11 AM 63.6333 -148.7667 193° South 230 265 19,000  Level Anchorage Center
Tue 02:31:11 AM 63.5833 -148.8000 197° South 200 230 19,000  Level Anchorage Center
Tue 02:32:11 AM 63.5167 -148.8333 193° South 200 230 19,000  Level Anchorage Center
Tue 02:33:12 AM 63.4667 -148.8667 197° South 180 207 19,000  Level Anchorage Center
Tue 02:34:12 AM 63.4167 -148.8833 188° South 180 207 19,000  Level Anchorage Center
Tue 02:35:13 AM 63.3667 -148.9167 197° South 190 219 19,000  Level Anchorage Center
Tue 02:36:13 AM 63.3167 -148.9333 189° South 210 242 19,000  Level Anchorage Center
Tue 02:37:13 AM 63.2500 -148.9667 193° South 220 253 19,000  Level Anchorage Center
Tue 02:38:14 AM 63.2000 -149.0000 197° South 230 265 19,000  Level Anchorage Center
Tue 02:39:14 AM 63.1333 -149.0333 193° South 210 242 19,000  Level Anchorage Center
Tue 02:40:14 AM 63.0833 -149.0667 197° South 210 242 19,000  Level Anchorage Center
Tue 02:41:15 AM 63.0167 -149.1000 193° South 220 253 19,000  Level Anchorage Center
Tue 02:42:15 AM 62.9500 -149.1333 193° South 220 253 19,000  Level Anchorage Center
Tue 02:43:15 AM 62.9000 -149.1500 189° South 220 253 19,000  Level Anchorage Center
Tue 02:44:16 AM 62.8333 -149.1833 193° South 220 253 19,000  Level Anchorage Center
Tue 02:45:16 AM 62.7833 -149.2167 197° South 210 242 19,000  Level Anchorage Center
Tue 02:46:16 AM 62.7167 -149.2500 193° South 220 253 19,000  Level Anchorage Center
Tue 02:47:17 AM 62.6667 -149.2833 197° South 220 253 19,000  Level Anchorage Center
Tue 02:48:17 AM 62.6000 -149.3000 187° South 230 265 19,000  Level Anchorage Center
Tue 02:50:18 AM 62.4833 -149.3667 195° South 240 276 19,000 1,160 Level Anchorage Center
Tue 02:51:18 AM 62.4167 -149.4000 193° South 230 265 22,500 1,091 Climbing Anchorage Center
Tue 02:52:19 AM 62.3500 -149.4333 193° South 250 288 21,200 -1,388 Descending Anchorage Center
Tue 02:53:19 AM 62.2667 -149.4667 191° South 270 311 19,700 -1,500 Descending Anchorage Center
Tue 02:54:19 AM 62.2000 -149.5167 199° South 270 311 18,200 -1,289 Descending Anchorage Center
Tue 02:55:20 AM 62.1333 -149.5333 187° South 270 311 17,100 -1,339 Descending Anchorage Center
Tue 02:56:20 AM 62.0500 -149.5833 196° South 260 299 15,500 -1,550 Descending Anchorage Center
Tue 02:57:20 AM 61.9833 -149.6167 193° South 270 311 14,000 -1,500 Descending Anchorage Center
Tue 02:59:00 AM 61.8869 -149.6426 195° South  Level FlightAware Approximate
Tue 03:06:00 AM 61.4905 -149.8382 193° South  Level FlightAware Approximate
Tue 03:07:00 AM 61.4339 -149.8664 193° South  Level FlightAware Approximate
Tue 03:08:00 AM 61.3770 -149.8910 189° South  Level FlightAware Approximate
Tue 03:09:00 AM 61.3200 -149.9150 193° South  Level FlightAware Approximate
Tue 03:10:00 AM 61.2629 -149.9382 191° South  Level FlightAware Approximate
Tue 03:11:00 AM 61.2061 -149.9636 194° South  Level FlightAware Approximate
Tue 03:12:00 AM 61.1667 -149.9833 194° South  Level FlightAware Approximate
Tue 03:13:00 AM 61.1741 -149.9982 194° South  Level Estimated
Tue 03:14:00 AM 61.1741 -149.9982 194° South  Level Estimated
Tue 03:15:00 AM 61.1741 -149.9982 194° South  Level Estimated
Tue 03:16:00 AM 61.1741 -149.9982 194° South  Level Estimated
Tue 03:17:00 AM 61.1741 -149.9982 194° South  Level Estimated
Tue 03:18:00 AM 61.1741 -149.9982 194° South  Level Estimated
Tue 03:19:00 AM 61.1741 -149.9982 194° South  Level Estimated
Tue 03:20:00 AM 61.1741 -149.9982 194° South  Level Estimated
Tue 03:21:00 AM 61.1741 -149.9982 194° South  Level Estimated
Tue 03:22:00 AM 61.1741 -149.9982 194° South  Level Estimated
Tue 03:23:00 AM 61.1741 -149.9982 194° South  Level Estimated
Tue 03:24:00 AM 61.1741 -149.9982 194° South  Level Estimated
Tue 03:25:00 AM 61.1741 -149.9982 194° South  Level Estimated
Tue 03:26:00 AM 61.1741 -149.9982 194° South  Level Estimated
Tue 03:27:00 AM 61.1741 -149.9982 194° South  Level Estimated

Login

Don't have an account? Register now (free) for customized features, flight alerts, and more!